createdAt,value
2022-09-03T00:00:17.300Z,12.50
2022-09-03T00:03:24.588Z,11.40
2022-09-03T00:06:17.842Z,11.40
2022-09-03T00:09:00.763Z,12.60
2022-09-03T00:11:38.866Z,12.80
2022-09-03T00:14:14.413Z,11.40
2022-09-03T00:16:56.083Z,9.10
2022-09-03T00:19:32.076Z,10.80
2022-09-03T00:22:24.615Z,10.80
2022-09-03T00:24:52.729Z,10.80
2022-09-03T00:27:27.615Z,12.30
2022-09-03T00:30:16.934Z,11.10
2022-09-03T00:32:54.686Z,11.30
2022-09-03T00:35:44.622Z,11.20
2022-09-03T00:38:12.042Z,11.30
2022-09-03T00:41:06.518Z,11.20
2022-09-03T00:44:14.428Z,10.70
2022-09-03T00:47:00.541Z,12.50
2022-09-03T00:50:00.053Z,9.10
2022-09-03T00:52:48.698Z,12.60
2022-09-03T00:55:58.463Z,14.30
2022-09-03T00:58:51.490Z,10.20
2022-09-03T01:01:35.083Z,10.30
2022-09-03T01:04:32.802Z,12.40
2022-09-03T01:07:40.191Z,10.20
2022-09-03T01:10:27.003Z,11.90
2022-09-03T01:13:13.341Z,10.20
2022-09-03T01:16:13.128Z,12.30
2022-09-03T01:18:55.743Z,10.20
2022-09-03T01:21:44.200Z,14.10
2022-09-03T01:24:39.104Z,10.30
2022-09-03T01:27:43.625Z,13.00
2022-09-03T01:33:13.855Z,12.10
2022-09-03T01:35:51.231Z,11.30
2022-09-03T01:38:38.367Z,11.00
2022-09-03T01:41:54.072Z,10.80
2022-09-03T01:44:50.707Z,10.60
2022-09-03T01:47:57.592Z,9.60
2022-09-03T01:50:54.529Z,12.10
2022-09-03T01:54:20.773Z,10.70
2022-09-03T01:57:35.690Z,12.20
2022-09-03T02:00:13.326Z,11.80
2022-09-03T02:02:51.167Z,10.10
2022-09-03T02:05:26.150Z,10.50
2022-09-03T02:08:03.479Z,10.50
2022-09-03T02:10:54.992Z,9.40
2022-09-03T02:13:31.819Z,9.10
2022-09-03T02:16:05.738Z,12.00
2022-09-03T02:18:41.215Z,10.70
2022-09-03T02:21:10.423Z,11.90
2022-09-03T02:23:40.627Z,9.00
2022-09-03T02:26:11.560Z,9.00
2022-09-03T02:28:38.944Z,10.40
2022-09-03T02:31:06.556Z,13.00
2022-09-03T02:33:39.366Z,10.50
2022-09-03T02:36:11.982Z,9.90
2022-09-03T02:38:42.269Z,12.20
2022-09-03T02:41:14.663Z,11.10
2022-09-03T02:44:12.025Z,13.50
2022-09-03T02:47:03.969Z,12.50
2022-09-03T02:49:32.828Z,11.30
2022-09-03T02:52:09.120Z,12.70
2022-09-03T02:54:39.487Z,11.70
2022-09-03T02:57:10.158Z,10.60
2022-09-03T02:59:39.471Z,10.20
2022-09-03T03:02:08.259Z,10.90
2022-09-03T03:04:35.930Z,10.60
2022-09-03T03:07:03.809Z,10.00
2022-09-03T03:09:31.141Z,9.70
2022-09-03T03:11:58.911Z,13.80
2022-09-03T03:14:26.296Z,10.00
2022-09-03T03:16:53.865Z,10.10
2022-09-03T03:19:21.387Z,12.00
2022-09-03T03:21:48.849Z,9.50
2022-09-03T03:24:16.312Z,9.60
2022-09-03T03:26:43.754Z,9.50
2022-09-03T03:29:17.766Z,7.40
2022-09-03T03:31:45.653Z,9.90
2022-09-03T03:34:13.021Z,11.20
2022-09-03T03:36:40.447Z,8.20
2022-09-03T03:39:07.952Z,9.30
2022-09-03T03:41:39.158Z,7.60
2022-09-03T03:44:08.359Z,7.20
2022-09-03T03:46:39.241Z,7.10
2022-09-03T03:49:08.355Z,9.20
2022-09-03T03:51:37.478Z,7.70
2022-09-03T03:54:05.743Z,10.30
2022-09-03T03:56:35.178Z,8.30
2022-09-03T03:59:03.755Z,9.10
2022-09-03T04:01:32.375Z,13.20
2022-09-03T04:04:00.249Z,8.60
2022-09-03T04:06:28.921Z,11.10
2022-09-03T04:08:56.786Z,9.20
2022-09-03T04:11:25.650Z,9.30
2022-09-03T04:13:54.135Z,7.70
2022-09-03T04:16:25.384Z,9.70
2022-09-03T04:18:55.698Z,8.00
2022-09-03T04:21:29.085Z,9.70
2022-09-03T04:23:58.366Z,7.90
2022-09-03T04:26:31.183Z,13.00
2022-09-03T04:29:01.816Z,8.50
2022-09-03T04:31:30.854Z,12.20
2022-09-03T04:33:59.717Z,7.90
2022-09-03T04:36:30.461Z,11.20
2022-09-03T04:39:01.926Z,8.60
2022-09-03T04:41:31.294Z,8.10
2022-09-03T04:43:59.679Z,6.30
2022-09-03T04:46:32.723Z,8.60
2022-09-03T04:51:29.621Z,6.20
2022-09-03T04:54:02.013Z,7.60
2022-09-03T04:56:33.655Z,7.30
2022-09-03T04:59:05.348Z,6.70
2022-09-03T05:01:35.756Z,7.50
2022-09-03T05:04:04.694Z,7.30
2022-09-03T05:06:33.707Z,6.30
2022-09-03T05:09:02.269Z,7.50
2022-09-03T05:11:30.484Z,6.20
2022-09-03T05:13:59.894Z,7.00
2022-09-03T05:16:30.484Z,5.90
2022-09-03T05:19:00.751Z,6.70
2022-09-03T05:21:29.642Z,6.90
2022-09-03T05:23:57.916Z,6.40
2022-09-03T05:26:29.117Z,8.20
2022-09-03T05:29:08.299Z,6.50
2022-09-03T05:31:41.371Z,7.90
2022-09-03T05:34:09.920Z,7.10
2022-09-03T05:36:38.152Z,11.30
2022-09-03T05:39:06.633Z,6.90
2022-09-03T05:41:34.723Z,7.50
2022-09-03T05:44:03.582Z,5.10
2022-09-03T05:46:33.088Z,6.80
2022-09-03T05:49:03.121Z,6.60
2022-09-03T05:51:31.602Z,8.70
2022-09-03T05:53:59.457Z,5.50
2022-09-03T05:56:30.755Z,6.00
2022-09-03T05:59:01.282Z,8.40
2022-09-03T06:01:35.104Z,5.70
2022-09-03T06:04:07.646Z,6.10
2022-09-03T06:06:38.126Z,5.90
2022-09-03T06:09:12.856Z,6.80
2022-09-03T06:11:42.338Z,5.10
2022-09-03T06:14:13.670Z,6.50
2022-09-03T06:16:52.284Z,5.00
2022-09-03T06:19:19.965Z,11.20
2022-09-03T06:21:47.686Z,6.20
2022-09-03T06:24:18.615Z,7.20
2022-09-03T06:26:46.326Z,8.70
2022-09-03T06:29:14.563Z,4.70
2022-09-03T06:31:42.588Z,8.30
2022-09-03T06:34:10.110Z,8.50
2022-09-03T06:36:41.027Z,6.50
2022-09-03T06:39:08.528Z,6.40
2022-09-03T06:41:36.247Z,10.70
2022-09-03T06:44:11.043Z,4.90
2022-09-03T06:46:42.089Z,7.40
2022-09-03T06:49:11.228Z,6.50
2022-09-03T06:51:43.598Z,5.90
2022-09-03T06:54:12.197Z,5.50
2022-09-03T06:56:41.651Z,6.00
2022-09-03T06:59:13.217Z,5.10
2022-09-03T07:01:44.799Z,5.10
2022-09-03T07:04:20.205Z,7.60
2022-09-03T07:06:48.634Z,5.80
2022-09-03T07:09:17.963Z,6.10
2022-09-03T07:11:47.246Z,4.70
2022-09-03T07:14:18.320Z,5.40
2022-09-03T07:16:47.565Z,5.90
2022-09-03T07:19:15.340Z,6.30
2022-09-03T07:21:49.603Z,7.50
2022-09-03T07:24:21.407Z,6.60
2022-09-03T07:26:49.491Z,9.10
2022-09-03T07:29:19.751Z,7.40
2022-09-03T07:31:48.430Z,7.10
2022-09-03T07:34:16.226Z,6.90
2022-09-03T07:36:48.883Z,6.70
2022-09-03T07:39:17.921Z,6.30
2022-09-03T07:41:46.568Z,8.00
2022-09-03T07:44:18.774Z,8.10
2022-09-03T07:46:47.273Z,6.70
2022-09-03T07:49:14.720Z,6.80
2022-09-03T07:51:42.124Z,7.60
2022-09-03T07:54:10.805Z,6.70
2022-09-03T07:56:41.613Z,6.40
2022-09-03T07:59:12.280Z,6.30
2022-09-03T08:01:41.692Z,9.00
2022-09-03T08:04:10.588Z,6.70
2022-09-03T08:06:39.089Z,5.80
2022-09-03T08:09:10.926Z,5.40
2022-09-03T08:11:42.943Z,6.10
2022-09-03T08:14:13.601Z,5.70
2022-09-03T08:16:47.558Z,5.60
2022-09-03T08:19:20.590Z,6.00
2022-09-03T08:21:48.237Z,5.80
2022-09-03T08:24:20.514Z,4.30
2022-09-03T08:26:51.997Z,6.60
2022-09-03T08:29:21.030Z,6.10
2022-09-03T08:31:48.686Z,5.80
2022-09-03T08:34:17.413Z,7.50
2022-09-03T08:36:46.610Z,7.50
2022-09-03T08:39:14.331Z,5.80
2022-09-03T08:41:50.554Z,5.30
2022-09-03T08:44:58.823Z,5.40
2022-09-03T08:47:32.625Z,6.80
2022-09-03T08:50:12.397Z,6.60
2022-09-03T08:52:51.713Z,5.30
2022-09-03T08:55:19.450Z,8.30
2022-09-03T08:57:56.620Z,7.40
2022-09-03T09:00:24.310Z,5.50
2022-09-03T09:03:30.788Z,6.40
2022-09-03T09:06:20.137Z,10.10
2022-09-03T09:09:15.845Z,10.60
2022-09-03T09:12:20.254Z,6.60
2022-09-03T09:15:16.039Z,4.00
2022-09-03T09:18:07.539Z,5.60
2022-09-03T09:21:11.550Z,5.70
2022-09-03T09:23:53.987Z,8.00
2022-09-03T09:26:22.328Z,6.60
2022-09-03T09:29:09.486Z,5.50
2022-09-03T09:31:39.536Z,8.10
2022-09-03T09:34:08.627Z,7.90
2022-09-03T09:37:13.045Z,5.40
2022-09-03T09:39:53.198Z,6.30
2022-09-03T09:42:22.718Z,5.30
2022-09-03T09:44:50.694Z,6.30
2022-09-03T09:47:30.972Z,7.10
2022-09-03T09:50:02.506Z,5.10
2022-09-03T09:52:32.069Z,7.20
2022-09-03T09:55:18.976Z,7.80
2022-09-03T09:57:46.438Z,6.90
2022-09-03T10:00:17.634Z,7.50
2022-09-03T10:02:54.326Z,8.50
2022-09-03T10:05:26.122Z,9.00
2022-09-03T10:08:20.776Z,9.00
2022-09-03T10:10:50.650Z,6.00
2022-09-03T10:13:23.659Z,7.10
2022-09-03T10:19:06.912Z,7.30
2022-09-03T10:22:10.422Z,7.30
2022-09-03T10:24:52.754Z,5.70
2022-09-03T10:27:21.664Z,5.60
2022-09-03T10:29:49.943Z,5.40
2022-09-03T10:32:38.822Z,5.20
2022-09-03T10:35:34.828Z,5.60
2022-09-03T10:38:10.913Z,6.30
2022-09-03T10:40:51.070Z,6.00
2022-09-03T10:43:35.227Z,5.60
2022-09-03T10:46:21.871Z,5.40
2022-09-03T10:49:19.259Z,6.00
2022-09-03T10:52:10.926Z,6.10
2022-09-03T10:55:32.209Z,6.60
2022-09-03T10:58:37.879Z,6.20
2022-09-03T11:01:35.258Z,6.20
2022-09-03T11:04:38.952Z,5.70
2022-09-03T11:07:12.867Z,5.20
2022-09-03T11:10:15.953Z,6.50
2022-09-03T11:13:02.614Z,5.50
2022-09-03T11:15:48.878Z,5.30
2022-09-03T11:18:34.664Z,8.20
2022-09-03T11:21:11.993Z,7.80
2022-09-03T11:23:45.401Z,5.00
2022-09-03T11:29:24.862Z,5.70
2022-09-03T11:32:02.617Z,6.10
2022-09-03T11:34:44.054Z,5.30
2022-09-03T11:37:24.187Z,5.50
2022-09-03T11:40:17.937Z,5.70
2022-09-03T11:42:46.984Z,4.90
2022-09-03T11:45:35.624Z,6.30
2022-09-03T11:48:30.228Z,7.30
2022-09-03T11:51:08.573Z,6.40
2022-09-03T11:53:39.783Z,4.30
2022-09-03T11:56:07.312Z,6.00
2022-09-03T11:58:46.016Z,5.50
2022-09-03T12:01:18.441Z,5.10
2022-09-03T12:03:58.237Z,5.60
2022-09-03T12:06:59.332Z,5.30
2022-09-03T12:09:35.927Z,5.40
2022-09-03T12:12:41.250Z,5.40
2022-09-03T12:15:40.040Z,6.30
2022-09-03T12:18:21.321Z,6.00
2022-09-03T12:21:04.389Z,7.10
2022-09-03T12:26:26.917Z,4.60
2022-09-03T12:28:58.136Z,7.40
2022-09-03T12:31:29.893Z,6.20
2022-09-03T12:34:07.432Z,5.50
2022-09-03T12:36:44.406Z,5.60
2022-09-03T12:39:15.880Z,5.60
2022-09-03T12:42:04.882Z,5.00
2022-09-03T12:44:36.113Z,3.90
2022-09-03T12:50:07.381Z,4.20
2022-09-03T12:52:50.053Z,6.20
2022-09-03T12:55:40.029Z,7.00
2022-09-03T12:58:44.878Z,4.90
2022-09-03T13:01:21.848Z,5.80
2022-09-03T13:03:59.201Z,4.60
2022-09-03T13:06:49.443Z,4.00
2022-09-03T13:09:23.152Z,5.20
2022-09-03T13:11:52.133Z,5.00
2022-09-03T13:14:19.685Z,4.80
2022-09-03T13:16:47.146Z,5.20
2022-09-03T13:20:01.450Z,3.90
2022-09-03T13:23:08.252Z,5.30
2022-09-03T13:26:06.384Z,6.00
2022-09-03T13:28:39.649Z,6.20
2022-09-03T13:31:40.650Z,4.80
2022-09-03T13:34:32.836Z,5.00
2022-09-03T13:37:48.854Z,5.10
2022-09-03T13:40:33.743Z,4.70
2022-09-03T13:43:36.940Z,3.60
2022-09-03T13:46:33.217Z,5.30
2022-09-03T13:50:01.358Z,4.50
2022-09-03T13:53:36.647Z,3.90
2022-09-03T13:56:46.141Z,5.20
2022-09-03T13:59:26.593Z,6.00
2022-09-03T14:02:32.005Z,4.50
2022-09-03T14:05:24.023Z,4.50
2022-09-03T14:07:58.294Z,6.70
2022-09-03T14:10:55.868Z,8.30
2022-09-03T14:13:50.788Z,4.40
2022-09-03T14:17:14.975Z,7.10
2022-09-03T14:20:05.077Z,6.30
2022-09-03T14:22:53.996Z,4.10
2022-09-03T14:25:25.266Z,4.80
2022-09-03T14:27:55.310Z,4.80
2022-09-03T14:30:48.192Z,4.50
2022-09-03T14:34:10.842Z,5.50
2022-09-03T14:37:04.030Z,7.60
2022-09-03T14:39:55.021Z,4.90
2022-09-03T14:42:34.203Z,6.60
2022-09-03T14:45:18.386Z,4.70
2022-09-03T14:48:55.796Z,4.60
2022-09-03T14:51:41.312Z,5.50
2022-09-03T14:54:31.346Z,5.20
2022-09-03T14:57:45.582Z,5.20
2022-09-03T15:00:19.993Z,4.80
2022-09-03T15:03:51.344Z,10.20
2022-09-03T15:06:47.054Z,5.50
2022-09-03T15:09:48.122Z,5.50
2022-09-03T15:12:30.264Z,6.70
2022-09-03T15:15:08.612Z,4.80
2022-09-03T15:18:10.476Z,4.80
2022-09-03T15:20:54.283Z,6.10
2022-09-03T15:23:43.295Z,4.90
2022-09-03T15:26:35.443Z,5.60
2022-09-03T15:29:24.600Z,6.30
2022-09-03T15:32:00.218Z,6.80
2022-09-03T15:35:11.508Z,5.90
2022-09-03T15:37:59.078Z,5.90
2022-09-03T15:40:45.315Z,5.80
2022-09-03T15:43:33.486Z,5.10
2022-09-03T15:46:14.431Z,6.40
2022-09-03T15:49:49.635Z,6.20
2022-09-03T15:52:45.545Z,7.00
2022-09-03T15:55:29.054Z,4.90
2022-09-03T15:58:11.479Z,6.10
2022-09-03T16:01:09.387Z,6.50
2022-09-03T16:04:00.950Z,5.00
2022-09-03T16:06:37.657Z,8.70
2022-09-03T16:09:15.986Z,10.90
2022-09-03T16:12:04.420Z,8.30
2022-09-03T16:14:45.958Z,7.30
2022-09-03T16:17:35.002Z,6.90
2022-09-03T16:20:23.458Z,8.10
2022-09-03T16:23:23.403Z,8.20
2022-09-03T16:26:07.066Z,6.70
2022-09-03T16:28:59.520Z,9.60
2022-09-03T16:32:07.089Z,6.50
2022-09-03T16:34:55.670Z,9.50
2022-09-03T16:38:24.637Z,6.50
2022-09-03T16:41:01.717Z,6.70
2022-09-03T16:43:41.788Z,5.40
2022-09-03T16:46:43.064Z,9.80
2022-09-03T16:49:21.565Z,8.00
2022-09-03T16:52:10.415Z,5.50
2022-09-03T16:55:02.923Z,6.00
2022-09-03T16:58:09.983Z,5.40
2022-09-03T17:00:53.134Z,6.30
2022-09-03T17:04:02.100Z,7.20
2022-09-03T17:06:56.421Z,8.80
2022-09-03T17:09:58.378Z,7.40
2022-09-03T17:12:51.044Z,9.50
2022-09-03T17:15:30.660Z,5.70
2022-09-03T17:18:30.461Z,7.60
2022-09-03T17:21:14.094Z,5.60
2022-09-03T17:24:02.388Z,5.60
2022-09-03T17:27:04.121Z,6.90
2022-09-03T17:30:07.317Z,20.50
2022-09-03T17:32:57.278Z,18.50
2022-09-03T17:35:37.920Z,16.40
2022-09-03T17:38:29.866Z,11.90
2022-09-03T17:41:32.358Z,9.70
2022-09-03T17:44:44.529Z,6.80
2022-09-03T17:48:05.138Z,6.70
2022-09-03T17:50:46.538Z,5.80
2022-09-03T17:54:02.367Z,10.20
2022-09-03T17:56:48.948Z,7.30
2022-09-03T17:59:37.432Z,11.10
2022-09-03T18:03:01.567Z,11.00
2022-09-03T18:08:13.354Z,9.60
2022-09-03T18:11:34.447Z,9.60
2022-09-03T18:14:22.564Z,6.90
2022-09-03T18:17:09.864Z,7.20
2022-09-03T18:20:06.637Z,7.70
2022-09-03T18:23:24.386Z,7.30
2022-09-03T18:26:24.342Z,7.40
2022-09-03T18:29:28.236Z,9.60
2022-09-03T18:32:14.562Z,10.20
2022-09-03T18:35:01.297Z,8.00
2022-09-03T18:37:46.777Z,9.20
2022-09-03T18:40:46.257Z,9.00
2022-09-03T18:43:46.058Z,6.90
2022-09-03T18:51:12.347Z,8.20
2022-09-03T18:54:10.925Z,9.30
2022-09-03T18:57:03.664Z,9.40
2022-09-03T19:00:29.146Z,6.70
2022-09-03T19:03:57.664Z,10.60
2022-09-03T19:06:59.340Z,9.10
2022-09-03T19:09:55.299Z,10.20
2022-09-03T19:13:31.492Z,10.50
2022-09-03T19:17:22.531Z,8.00
2022-09-03T19:20:36.502Z,9.60
2022-09-03T19:23:22.609Z,7.30
2022-09-03T19:26:11.851Z,9.20
2022-09-03T19:29:06.191Z,10.80
2022-09-03T19:32:22.733Z,9.90
2022-09-03T19:35:33.175Z,7.60
2022-09-03T19:38:52.701Z,8.30
2022-09-03T19:42:30.259Z,7.60
2022-09-03T19:45:56.716Z,12.70
2022-09-03T19:49:01.786Z,9.50
2022-09-03T19:52:12.801Z,8.90
2022-09-03T19:54:59.726Z,7.70
2022-09-03T19:57:48.874Z,10.70
2022-09-03T20:00:35.278Z,9.00
2022-09-03T20:03:25.935Z,10.70
2022-09-03T20:06:12.154Z,11.90
2022-09-03T20:08:58.375Z,12.70
2022-09-03T20:11:30.384Z,11.90
2022-09-03T20:14:17.843Z,8.10
2022-09-03T20:17:18.851Z,10.40
2022-09-03T20:20:17.486Z,9.00
2022-09-03T20:23:18.030Z,11.10
2022-09-03T20:26:14.364Z,9.30
2022-09-03T20:29:13.720Z,9.00
2022-09-03T20:31:53.463Z,8.80
2022-09-03T20:35:03.034Z,10.50
2022-09-03T20:38:20.980Z,8.70
2022-09-03T20:41:28.390Z,9.40
2022-09-03T20:44:02.733Z,8.70
2022-09-03T20:46:51.763Z,11.90
2022-09-03T20:49:50.249Z,10.10
2022-09-03T20:52:45.482Z,10.10
2022-09-03T20:55:22.840Z,10.60
2022-09-03T20:58:17.945Z,11.90
2022-09-03T21:01:05.777Z,13.00
2022-09-03T21:03:54.946Z,9.30
2022-09-03T21:06:50.470Z,10.80
2022-09-03T21:09:31.138Z,9.50
2022-09-03T21:12:04.631Z,9.50
2022-09-03T21:14:38.627Z,8.00
2022-09-03T21:17:41.847Z,9.90
2022-09-03T21:20:59.877Z,8.90
2022-09-03T21:23:41.727Z,8.90
2022-09-03T21:26:25.504Z,7.40
2022-09-03T21:29:07.118Z,10.00
2022-09-03T21:32:03.877Z,8.20
2022-09-03T21:34:41.572Z,8.80
2022-09-03T21:37:12.855Z,13.90
2022-09-03T21:39:56.455Z,9.30
2022-09-03T21:42:42.073Z,8.70
2022-09-03T21:45:44.890Z,8.70
2022-09-03T21:48:27.104Z,8.60
2022-09-03T21:50:59.899Z,9.40
2022-09-03T21:56:25.948Z,6.00
2022-09-03T21:59:22.084Z,6.70
2022-09-03T22:02:16.578Z,8.30
2022-09-03T22:04:44.288Z,8.20
2022-09-03T22:07:55.318Z,8.30
2022-09-03T22:10:44.143Z,9.70
2022-09-03T22:13:28.938Z,8.20
2022-09-03T22:16:14.771Z,9.20
2022-09-03T22:18:43.711Z,10.90
2022-09-03T22:21:23.167Z,7.00
2022-09-03T22:24:22.661Z,11.70
2022-09-03T22:27:22.065Z,8.10
2022-09-03T22:30:06.534Z,6.50
2022-09-03T22:32:56.657Z,6.70
2022-09-03T22:35:54.586Z,6.20
2022-09-03T22:38:55.535Z,7.50
2022-09-03T22:41:35.070Z,7.80
2022-09-03T22:44:31.925Z,6.60
2022-09-03T22:47:34.000Z,8.10
2022-09-03T22:50:21.624Z,9.40
2022-09-03T22:53:06.159Z,9.60
2022-09-03T22:55:37.118Z,5.50
2022-09-03T22:58:19.451Z,8.30
2022-09-03T23:00:57.792Z,7.50
2022-09-03T23:04:06.637Z,7.00
2022-09-03T23:06:40.921Z,9.30
2022-09-03T23:09:15.620Z,10.50
2022-09-03T23:11:49.748Z,6.60
2022-09-03T23:14:28.559Z,6.30
2022-09-03T23:17:13.119Z,9.30
2022-09-03T23:19:53.069Z,10.40
2022-09-03T23:22:29.630Z,7.90
2022-09-03T23:25:06.130Z,7.50
2022-09-03T23:27:46.463Z,7.90
2022-09-03T23:30:13.939Z,8.80
2022-09-03T23:32:41.694Z,6.70
2022-09-03T23:35:17.851Z,7.50
2022-09-03T23:38:33.020Z,7.10
2022-09-03T23:41:07.866Z,7.80
2022-09-03T23:43:55.284Z,10.80
2022-09-03T23:46:30.415Z,11.70
2022-09-03T23:49:28.619Z,9.10
2022-09-03T23:52:40.389Z,7.70
2022-09-03T23:55:22.837Z,7.80
2022-09-03T23:58:24.013Z,10.30
